sensor_id;sensor_type;location;lat;lon;timestamp;P1;durP1;ratioP1;P2;durP2;ratioP2
50231;SDS011;36118;56.468;84.952;2023-06-22T00:00:09;8.85;;;5.80;;
50231;SDS011;36118;56.468;84.952;2023-06-22T00:10:19;8.93;;;5.10;;
50231;SDS011;36118;56.468;84.952;2023-06-22T00:15:22;8.88;;;5.85;;
50231;SDS011;36118;56.468;84.952;2023-06-22T00:20:26;14.32;;;5.85;;
50231;SDS011;36118;56.468;84.952;2023-06-22T00:25:34;7.90;;;5.10;;
50231;SDS011;36118;56.468;84.952;2023-06-22T00:30:38;8.90;;;5.45;;
50231;SDS011;36118;56.468;84.952;2023-06-22T00:35:41;9.00;;;5.80;;
50231;SDS011;36118;56.468;84.952;2023-06-22T00:40:45;11.63;;;5.80;;
50231;SDS011;36118;56.468;84.952;2023-06-22T00:45:48;11.63;;;6.15;;
50231;SDS011;36118;56.468;84.952;2023-06-22T00:50:52;11.40;;;6.00;;
50231;SDS011;36118;56.468;84.952;2023-06-22T00:55:59;12.35;;;6.70;;
50231;SDS011;36118;56.468;84.952;2023-06-22T01:01:02;11.38;;;6.70;;
50231;SDS011;36118;56.468;84.952;2023-06-22T01:06:09;11.95;;;6.95;;
50231;SDS011;36118;56.468;84.952;2023-06-22T01:11:16;24.42;;;7.65;;
50231;SDS011;36118;56.468;84.952;2023-06-22T01:16:24;13.23;;;7.72;;
50231;SDS011;36118;56.468;84.952;2023-06-22T01:21:34;16.17;;;7.22;;
50231;SDS011;36118;56.468;84.952;2023-06-22T01:31:49;12.43;;;6.75;;
50231;SDS011;36118;56.468;84.952;2023-06-22T01:36:54;14.70;;;7.27;;
50231;SDS011;36118;56.468;84.952;2023-06-22T01:41:59;15.13;;;7.27;;
50231;SDS011;36118;56.468;84.952;2023-06-22T01:47:02;14.23;;;7.15;;
50231;SDS011;36118;56.468;84.952;2023-06-22T01:52:06;18.77;;;7.97;;
50231;SDS011;36118;56.468;84.952;2023-06-22T01:57:10;15.85;;;8.20;;
50231;SDS011;36118;56.468;84.952;2023-06-22T02:02:13;21.85;;;7.55;;
50231;SDS011;36118;56.468;84.952;2023-06-22T02:07:19;15.73;;;7.50;;
50231;SDS011;36118;56.468;84.952;2023-06-22T02:12:24;16.10;;;7.60;;
50231;SDS011;36118;56.468;84.952;2023-06-22T02:17:30;13.68;;;7.90;;
50231;SDS011;36118;56.468;84.952;2023-06-22T02:22:36;18.75;;;7.75;;
50231;SDS011;36118;56.468;84.952;2023-06-22T02:27:41;14.43;;;7.60;;
50231;SDS011;36118;56.468;84.952;2023-06-22T02:32:43;19.98;;;8.35;;
50231;SDS011;36118;56.468;84.952;2023-06-22T02:37:50;12.70;;;7.85;;
50231;SDS011;36118;56.468;84.952;2023-06-22T02:42:55;23.90;;;7.38;;
50231;SDS011;36118;56.468;84.952;2023-06-22T02:48:01;9.07;;;6.43;;
50231;SDS011;36118;56.468;84.952;2023-06-22T02:53:06;10.80;;;6.07;;
50231;SDS011;36118;56.468;84.952;2023-06-22T02:58:12;10.15;;;5.28;;
50231;SDS011;36118;56.468;84.952;2023-06-22T03:03:16;8.82;;;5.40;;
50231;SDS011;36118;56.468;84.952;2023-06-22T03:08:19;10.93;;;6.07;;
50231;SDS011;36118;56.468;84.952;2023-06-22T03:13:23;12.93;;;5.68;;
50231;SDS011;36118;56.468;84.952;2023-06-22T03:18:26;11.25;;;5.45;;
50231;SDS011;36118;56.468;84.952;2023-06-22T03:23:30;11.20;;;4.50;;
50231;SDS011;36118;56.468;84.952;2023-06-22T03:28:34;9.18;;;4.30;;
50231;SDS011;36118;56.468;84.952;2023-06-22T03:33:37;11.13;;;4.50;;
50231;SDS011;36118;56.468;84.952;2023-06-22T03:38:41;9.93;;;4.00;;
50231;SDS011;36118;56.468;84.952;2023-06-22T03:43:44;14.85;;;4.13;;
50231;SDS011;36118;56.468;84.952;2023-06-22T03:53:52;6.85;;;3.25;;
50231;SDS011;36118;56.468;84.952;2023-06-22T03:58:55;7.22;;;3.45;;
50231;SDS011;36118;56.468;84.952;2023-06-22T04:03:59;8.07;;;3.22;;
50231;SDS011;36118;56.468;84.952;2023-06-22T04:09:02;8.88;;;3.55;;
50231;SDS011;36118;56.468;84.952;2023-06-22T04:14:05;8.23;;;3.35;;
50231;SDS011;36118;56.468;84.952;2023-06-22T04:19:08;5.22;;;3.22;;
50231;SDS011;36118;56.468;84.952;2023-06-22T04:24:18;5.22;;;2.67;;
50231;SDS011;36118;56.468;84.952;2023-06-22T04:29:22;9.45;;;2.58;;
50231;SDS011;36118;56.468;84.952;2023-06-22T04:34:31;5.55;;;2.45;;
50231;SDS011;36118;56.468;84.952;2023-06-22T04:39:35;10.52;;;3.10;;
50231;SDS011;36118;56.468;84.952;2023-06-22T04:44:38;15.98;;;3.30;;
50231;SDS011;36118;56.468;84.952;2023-06-22T04:49:42;7.55;;;2.17;;
50231;SDS011;36118;56.468;84.952;2023-06-22T04:54:46;9.85;;;2.53;;
50231;SDS011;36118;56.468;84.952;2023-06-22T04:59:58;6.20;;;2.58;;
50231;SDS011;36118;56.468;84.952;2023-06-22T05:05:13;7.20;;;2.20;;
50231;SDS011;36118;56.468;84.952;2023-06-22T05:10:18;7.33;;;2.40;;
50231;SDS011;36118;56.468;84.952;2023-06-22T05:15:22;5.90;;;2.20;;
50231;SDS011;36118;56.468;84.952;2023-06-22T05:20:28;6.47;;;2.10;;
50231;SDS011;36118;56.468;84.952;2023-06-22T05:25:32;8.80;;;2.15;;
50231;SDS011;36118;56.468;84.952;2023-06-22T05:30:35;4.95;;;1.90;;
50231;SDS011;36118;56.468;84.952;2023-06-22T05:35:39;10.25;;;2.13;;
50231;SDS011;36118;56.468;84.952;2023-06-22T05:40:42;8.02;;;1.90;;
50231;SDS011;36118;56.468;84.952;2023-06-22T05:45:45;5.78;;;1.80;;
50231;SDS011;36118;56.468;84.952;2023-06-22T05:50:48;6.65;;;1.70;;
50231;SDS011;36118;56.468;84.952;2023-06-22T05:55:52;6.38;;;1.90;;
50231;SDS011;36118;56.468;84.952;2023-06-22T06:00:55;7.28;;;2.03;;
50231;SDS011;36118;56.468;84.952;2023-06-22T06:05:58;5.00;;;2.15;;
50231;SDS011;36118;56.468;84.952;2023-06-22T06:11:02;6.97;;;1.95;;
50231;SDS011;36118;56.468;84.952;2023-06-22T06:16:05;4.82;;;2.00;;
50231;SDS011;36118;56.468;84.952;2023-06-22T06:21:08;6.03;;;2.15;;
50231;SDS011;36118;56.468;84.952;2023-06-22T06:26:12;7.82;;;2.50;;
50231;SDS011;36118;56.468;84.952;2023-06-22T06:31:16;9.70;;;2.22;;
50231;SDS011;36118;56.468;84.952;2023-06-22T06:36:21;5.70;;;2.13;;
50231;SDS011;36118;56.468;84.952;2023-06-22T06:41:24;6.07;;;2.15;;
50231;SDS011;36118;56.468;84.952;2023-06-22T06:46:27;5.88;;;1.98;;
50231;SDS011;36118;56.468;84.952;2023-06-22T06:51:31;11.05;;;2.30;;
50231;SDS011;36118;56.468;84.952;2023-06-22T06:56:35;5.57;;;2.03;;
50231;SDS011;36118;56.468;84.952;2023-06-22T07:01:37;7.15;;;2.15;;
50231;SDS011;36118;56.468;84.952;2023-06-22T07:06:41;7.05;;;2.00;;
50231;SDS011;36118;56.468;84.952;2023-06-22T07:11:45;9.60;;;1.73;;
50231;SDS011;36118;56.468;84.952;2023-06-22T07:16:47;8.23;;;2.17;;
50231;SDS011;36118;56.468;84.952;2023-06-22T07:21:51;5.63;;;2.00;;
50231;SDS011;36118;56.468;84.952;2023-06-22T07:26:54;8.75;;;1.85;;
50231;SDS011;36118;56.468;84.952;2023-06-22T07:32:00;8.82;;;2.03;;
50231;SDS011;36118;56.468;84.952;2023-06-22T07:37:07;7.20;;;2.28;;
50231;SDS011;36118;56.468;84.952;2023-06-22T07:42:11;9.70;;;2.13;;
50231;SDS011;36118;56.468;84.952;2023-06-22T07:47:13;9.10;;;1.90;;
50231;SDS011;36118;56.468;84.952;2023-06-22T07:52:17;9.45;;;1.95;;
50231;SDS011;36118;56.468;84.952;2023-06-22T07:57:20;11.98;;;2.35;;
50231;SDS011;36118;56.468;84.952;2023-06-22T08:02:23;8.40;;;1.70;;
50231;SDS011;36118;56.468;84.952;2023-06-22T08:07:26;7.03;;;1.75;;
50231;SDS011;36118;56.468;84.952;2023-06-22T08:12:31;5.25;;;1.88;;
50231;SDS011;36118;56.468;84.952;2023-06-22T08:17:34;5.45;;;1.90;;
50231;SDS011;36118;56.468;84.952;2023-06-22T08:22:40;18.50;;;2.60;;
50231;SDS011;36118;56.468;84.952;2023-06-22T08:27:45;8.80;;;2.15;;
50231;SDS011;36118;56.468;84.952;2023-06-22T08:32:49;7.18;;;2.22;;
50231;SDS011;36118;56.468;84.952;2023-06-22T08:37:53;6.00;;;1.70;;
50231;SDS011;36118;56.468;84.952;2023-06-22T08:42:56;4.55;;;1.48;;
50231;SDS011;36118;56.468;84.952;2023-06-22T08:47:59;7.18;;;1.60;;
50231;SDS011;36118;56.468;84.952;2023-06-22T08:53:04;14.25;;;1.85;;
50231;SDS011;36118;56.468;84.952;2023-06-22T08:58:08;21.88;;;2.53;;
50231;SDS011;36118;56.468;84.952;2023-06-22T09:03:11;19.33;;;2.33;;
50231;SDS011;36118;56.468;84.952;2023-06-22T09:08:15;7.63;;;1.90;;
50231;SDS011;36118;56.468;84.952;2023-06-22T09:13:18;10.38;;;1.63;;
50231;SDS011;36118;56.468;84.952;2023-06-22T09:18:22;6.10;;;1.67;;
50231;SDS011;36118;56.468;84.952;2023-06-22T09:23:25;6.07;;;1.70;;
50231;SDS011;36118;56.468;84.952;2023-06-22T09:28:42;9.10;;;1.90;;
50231;SDS011;36118;56.468;84.952;2023-06-22T09:33:45;16.48;;;1.90;;
50231;SDS011;36118;56.468;84.952;2023-06-22T09:38:49;10.80;;;1.90;;
50231;SDS011;36118;56.468;84.952;2023-06-22T09:43:59;7.53;;;2.15;;
50231;SDS011;36118;56.468;84.952;2023-06-22T09:49:02;14.80;;;2.70;;
50231;SDS011;36118;56.468;84.952;2023-06-22T09:54:05;16.55;;;2.50;;
50231;SDS011;36118;56.468;84.952;2023-06-22T09:59:09;4.93;;;2.13;;
50231;SDS011;36118;56.468;84.952;2023-06-22T10:04:24;5.18;;;1.88;;
50231;SDS011;36118;56.468;84.952;2023-06-22T10:09:29;8.45;;;2.58;;
50231;SDS011;36118;56.468;84.952;2023-06-22T10:14:31;13.90;;;5.00;;
50231;SDS011;36118;56.468;84.952;2023-06-22T10:19:35;16.98;;;8.02;;
50231;SDS011;36118;56.468;84.952;2023-06-22T10:24:40;11.63;;;5.40;;
50231;SDS011;36118;56.468;84.952;2023-06-22T10:29:47;6.38;;;2.22;;
50231;SDS011;36118;56.468;84.952;2023-06-22T10:34:50;4.32;;;1.85;;
50231;SDS011;36118;56.468;84.952;2023-06-22T10:39:53;7.15;;;1.40;;
50231;SDS011;36118;56.468;84.952;2023-06-22T10:44:55;6.57;;;1.25;;
50231;SDS011;36118;56.468;84.952;2023-06-22T10:49:58;4.68;;;1.77;;
50231;SDS011;36118;56.468;84.952;2023-06-22T10:55:02;8.35;;;1.60;;
50231;SDS011;36118;56.468;84.952;2023-06-22T11:00:06;4.65;;;1.83;;
50231;SDS011;36118;56.468;84.952;2023-06-22T11:05:11;13.13;;;2.45;;
50231;SDS011;36118;56.468;84.952;2023-06-22T11:10:14;10.30;;;1.70;;
50231;SDS011;36118;56.468;84.952;2023-06-22T11:15:17;17.20;;;2.03;;
50231;SDS011;36118;56.468;84.952;2023-06-22T11:20:21;16.05;;;3.35;;
50231;SDS011;36118;56.468;84.952;2023-06-22T11:25:25;7.18;;;2.78;;
50231;SDS011;36118;56.468;84.952;2023-06-22T11:30:28;7.05;;;2.20;;
50231;SDS011;36118;56.468;84.952;2023-06-22T11:35:33;4.63;;;2.30;;
50231;SDS011;36118;56.468;84.952;2023-06-22T11:40:37;6.35;;;2.05;;
50231;SDS011;36118;56.468;84.952;2023-06-22T11:45:40;4.05;;;2.00;;
50231;SDS011;36118;56.468;84.952;2023-06-22T11:50:44;4.53;;;1.88;;
50231;SDS011;36118;56.468;84.952;2023-06-22T11:55:48;7.13;;;1.60;;
50231;SDS011;36118;56.468;84.952;2023-06-22T12:00:52;5.55;;;1.67;;
50231;SDS011;36118;56.468;84.952;2023-06-22T12:05:57;4.97;;;1.67;;
50231;SDS011;36118;56.468;84.952;2023-06-22T12:11:01;4.95;;;1.85;;
50231;SDS011;36118;56.468;84.952;2023-06-22T12:16:04;4.00;;;1.90;;
50231;SDS011;36118;56.468;84.952;2023-06-22T12:21:08;6.10;;;2.10;;
50231;SDS011;36118;56.468;84.952;2023-06-22T12:26:11;5.47;;;1.40;;
50231;SDS011;36118;56.468;84.952;2023-06-22T12:31:15;8.35;;;1.90;;
50231;SDS011;36118;56.468;84.952;2023-06-22T12:36:20;5.35;;;1.55;;
50231;SDS011;36118;56.468;84.952;2023-06-22T12:41:24;4.10;;;1.48;;
50231;SDS011;36118;56.468;84.952;2023-06-22T12:46:28;6.45;;;1.85;;
50231;SDS011;36118;56.468;84.952;2023-06-22T12:51:33;7.15;;;2.47;;
50231;SDS011;36118;56.468;84.952;2023-06-22T12:56:38;3.90;;;1.70;;
50231;SDS011;36118;56.468;84.952;2023-06-22T13:01:42;6.83;;;2.07;;
50231;SDS011;36118;56.468;84.952;2023-06-22T13:06:47;3.80;;;1.90;;
50231;SDS011;36118;56.468;84.952;2023-06-22T13:11:53;5.10;;;1.95;;
50231;SDS011;36118;56.468;84.952;2023-06-22T13:16:56;7.97;;;2.67;;
50231;SDS011;36118;56.468;84.952;2023-06-22T13:22:00;9.30;;;3.80;;
50231;SDS011;36118;56.468;84.952;2023-06-22T13:27:07;10.40;;;2.97;;
50231;SDS011;36118;56.468;84.952;2023-06-22T13:32:10;8.50;;;2.70;;
50231;SDS011;36118;56.468;84.952;2023-06-22T13:37:13;11.57;;;6.03;;
50231;SDS011;36118;56.468;84.952;2023-06-22T13:42:16;18.77;;;7.68;;
50231;SDS011;36118;56.468;84.952;2023-06-22T13:47:19;20.98;;;9.57;;
50231;SDS011;36118;56.468;84.952;2023-06-22T13:52:22;20.00;;;8.60;;
50231;SDS011;36118;56.468;84.952;2023-06-22T13:57:28;14.00;;;6.55;;
50231;SDS011;36118;56.468;84.952;2023-06-22T14:02:32;22.83;;;10.18;;
50231;SDS011;36118;56.468;84.952;2023-06-22T14:07:36;23.45;;;11.27;;
50231;SDS011;36118;56.468;84.952;2023-06-22T14:12:42;21.15;;;9.40;;
50231;SDS011;36118;56.468;84.952;2023-06-22T14:17:45;9.63;;;4.05;;
50231;SDS011;36118;56.468;84.952;2023-06-22T14:22:48;9.85;;;3.00;;
50231;SDS011;36118;56.468;84.952;2023-06-22T14:27:52;9.82;;;3.80;;
50231;SDS011;36118;56.468;84.952;2023-06-22T14:32:55;9.23;;;2.97;;
50231;SDS011;36118;56.468;84.952;2023-06-22T14:37:59;6.25;;;3.55;;
50231;SDS011;36118;56.468;84.952;2023-06-22T14:43:03;16.27;;;9.10;;
50231;SDS011;36118;56.468;84.952;2023-06-22T14:48:06;16.45;;;8.30;;
50231;SDS011;36118;56.468;84.952;2023-06-22T14:53:10;16.00;;;8.98;;
50231;SDS011;36118;56.468;84.952;2023-06-22T14:58:13;17.98;;;9.70;;
50231;SDS011;36118;56.468;84.952;2023-06-22T15:03:16;16.70;;;10.00;;
50231;SDS011;36118;56.468;84.952;2023-06-22T15:08:19;18.40;;;9.45;;
50231;SDS011;36118;56.468;84.952;2023-06-22T15:13:23;10.88;;;7.32;;
50231;SDS011;36118;56.468;84.952;2023-06-22T15:18:27;9.53;;;5.20;;
50231;SDS011;36118;56.468;84.952;2023-06-22T15:23:34;9.85;;;6.03;;
50231;SDS011;36118;56.468;84.952;2023-06-22T15:28:37;18.77;;;11.57;;
50231;SDS011;36118;56.468;84.952;2023-06-22T15:33:41;21.05;;;13.38;;
50231;SDS011;36118;56.468;84.952;2023-06-22T15:38:44;22.52;;;12.05;;
50231;SDS011;36118;56.468;84.952;2023-06-22T15:43:47;22.10;;;12.75;;
50231;SDS011;36118;56.468;84.952;2023-06-22T15:48:51;19.77;;;11.07;;
50231;SDS011;36118;56.468;84.952;2023-06-22T15:53:57;17.88;;;11.13;;
50231;SDS011;36118;56.468;84.952;2023-06-22T15:59:00;13.55;;;7.60;;
50231;SDS011;36118;56.468;84.952;2023-06-22T16:04:03;8.80;;;5.50;;
50231;SDS011;36118;56.468;84.952;2023-06-22T16:09:07;8.48;;;5.68;;
50231;SDS011;36118;56.468;84.952;2023-06-22T16:14:10;8.68;;;4.68;;
50231;SDS011;36118;56.468;84.952;2023-06-22T16:19:14;7.57;;;4.50;;
50231;SDS011;36118;56.468;84.952;2023-06-22T16:24:17;6.22;;;4.30;;
50231;SDS011;36118;56.468;84.952;2023-06-22T16:29:21;7.60;;;4.07;;
50231;SDS011;36118;56.468;84.952;2023-06-22T16:34:24;7.15;;;3.60;;
50231;SDS011;36118;56.468;84.952;2023-06-22T16:39:27;6.47;;;3.20;;
50231;SDS011;36118;56.468;84.952;2023-06-22T16:44:31;5.22;;;3.33;;
50231;SDS011;36118;56.468;84.952;2023-06-22T16:49:35;6.20;;;3.30;;
50231;SDS011;36118;56.468;84.952;2023-06-22T16:54:39;5.15;;;3.13;;
50231;SDS011;36118;56.468;84.952;2023-06-22T17:00:01;6.28;;;3.30;;
50231;SDS011;36118;56.468;84.952;2023-06-22T17:05:07;7.05;;;3.03;;
50231;SDS011;36118;56.468;84.952;2023-06-22T17:10:11;5.68;;;2.88;;
50231;SDS011;36118;56.468;84.952;2023-06-22T17:15:14;5.35;;;2.85;;
50231;SDS011;36118;56.468;84.952;2023-06-22T17:20:17;5.57;;;2.50;;
50231;SDS011;36118;56.468;84.952;2023-06-22T17:25:20;3.30;;;2.20;;
50231;SDS011;36118;56.468;84.952;2023-06-22T17:30:24;4.32;;;2.47;;
50231;SDS011;36118;56.468;84.952;2023-06-22T17:35:30;4.50;;;2.15;;
50231;SDS011;36118;56.468;84.952;2023-06-22T17:40:35;3.95;;;2.50;;
50231;SDS011;36118;56.468;84.952;2023-06-22T17:45:43;4.55;;;2.58;;
50231;SDS011;36118;56.468;84.952;2023-06-22T17:50:50;4.55;;;2.75;;
50231;SDS011;36118;56.468;84.952;2023-06-22T17:55:53;4.68;;;3.00;;
50231;SDS011;36118;56.468;84.952;2023-06-22T18:00:56;5.45;;;3.03;;
50231;SDS011;36118;56.468;84.952;2023-06-22T18:05:59;4.50;;;3.10;;
50231;SDS011;36118;56.468;84.952;2023-06-22T18:11:03;6.13;;;3.08;;
50231;SDS011;36118;56.468;84.952;2023-06-22T18:16:08;4.97;;;3.28;;
50231;SDS011;36118;56.468;84.952;2023-06-22T18:21:13;4.70;;;3.15;;
50231;SDS011;36118;56.468;84.952;2023-06-22T18:26:18;8.02;;;3.50;;
50231;SDS011;36118;56.468;84.952;2023-06-22T18:31:23;6.38;;;3.88;;
50231;SDS011;36118;56.468;84.952;2023-06-22T18:36:28;6.13;;;3.60;;
50231;SDS011;36118;56.468;84.952;2023-06-22T18:41:36;7.70;;;3.70;;
50231;SDS011;36118;56.468;84.952;2023-06-22T18:46:40;5.47;;;3.93;;
50231;SDS011;36118;56.468;84.952;2023-06-22T18:56:55;6.20;;;3.75;;
50231;SDS011;36118;56.468;84.952;2023-06-22T19:02:00;5.38;;;3.50;;
50231;SDS011;36118;56.468;84.952;2023-06-22T19:07:04;5.93;;;3.95;;
50231;SDS011;36118;56.468;84.952;2023-06-22T19:12:20;5.78;;;3.88;;
50231;SDS011;36118;56.468;84.952;2023-06-22T19:17:28;6.70;;;3.70;;
50231;SDS011;36118;56.468;84.952;2023-06-22T19:28:01;6.70;;;3.78;;
50231;SDS011;36118;56.468;84.952;2023-06-22T19:33:04;5.07;;;3.40;;
50231;SDS011;36118;56.468;84.952;2023-06-22T19:43:13;5.90;;;3.67;;
50231;SDS011;36118;56.468;84.952;2023-06-22T19:48:17;5.20;;;3.47;;
50231;SDS011;36118;56.468;84.952;2023-06-22T19:53:21;5.28;;;3.60;;
50231;SDS011;36118;56.468;84.952;2023-06-22T19:58:24;6.78;;;3.75;;
50231;SDS011;36118;56.468;84.952;2023-06-22T20:03:37;9.60;;;3.85;;
50231;SDS011;36118;56.468;84.952;2023-06-22T20:08:44;4.60;;;3.55;;
50231;SDS011;36118;56.468;84.952;2023-06-22T20:13:51;5.93;;;3.73;;
50231;SDS011;36118;56.468;84.952;2023-06-22T20:19:08;5.53;;;3.75;;
50231;SDS011;36118;56.468;84.952;2023-06-22T20:24:19;4.97;;;3.75;;
50231;SDS011;36118;56.468;84.952;2023-06-22T20:29:22;6.50;;;3.75;;
50231;SDS011;36118;56.468;84.952;2023-06-22T20:39:49;4.95;;;3.33;;
50231;SDS011;36118;56.468;84.952;2023-06-22T20:44:53;8.35;;;3.70;;
50231;SDS011;36118;56.468;84.952;2023-06-22T20:49:56;6.50;;;3.35;;
50231;SDS011;36118;56.468;84.952;2023-06-22T20:55:02;5.35;;;3.80;;
50231;SDS011;36118;56.468;84.952;2023-06-22T21:00:05;7.55;;;3.80;;
50231;SDS011;36118;56.468;84.952;2023-06-22T21:05:10;5.55;;;3.90;;
50231;SDS011;36118;56.468;84.952;2023-06-22T21:10:13;4.75;;;3.47;;
50231;SDS011;36118;56.468;84.952;2023-06-22T21:15:17;4.43;;;3.40;;
50231;SDS011;36118;56.468;84.952;2023-06-22T21:20:21;5.95;;;3.40;;
50231;SDS011;36118;56.468;84.952;2023-06-22T21:25:24;6.03;;;3.38;;
50231;SDS011;36118;56.468;84.952;2023-06-22T21:30:27;7.25;;;3.65;;
50231;SDS011;36118;56.468;84.952;2023-06-22T21:35:31;6.85;;;3.92;;
50231;SDS011;36118;56.468;84.952;2023-06-22T21:40:34;5.85;;;3.47;;
50231;SDS011;36118;56.468;84.952;2023-06-22T21:45:37;7.15;;;3.53;;
50231;SDS011;36118;56.468;84.952;2023-06-22T21:50:40;6.28;;;3.08;;
50231;SDS011;36118;56.468;84.952;2023-06-22T21:55:43;5.95;;;3.25;;
50231;SDS011;36118;56.468;84.952;2023-06-22T22:00:46;4.93;;;3.13;;
50231;SDS011;36118;56.468;84.952;2023-06-22T22:05:49;5.63;;;3.35;;
50231;SDS011;36118;56.468;84.952;2023-06-22T22:10:52;5.18;;;3.10;;
50231;SDS011;36118;56.468;84.952;2023-06-22T22:15:55;4.50;;;2.78;;
50231;SDS011;36118;56.468;84.952;2023-06-22T22:20:58;8.13;;;3.20;;
50231;SDS011;36118;56.468;84.952;2023-06-22T22:26:01;8.57;;;3.10;;
50231;SDS011;36118;56.468;84.952;2023-06-22T22:31:04;4.60;;;3.05;;
50231;SDS011;36118;56.468;84.952;2023-06-22T22:36:07;4.32;;;2.67;;
50231;SDS011;36118;56.468;84.952;2023-06-22T22:41:12;8.98;;;3.15;;
50231;SDS011;36118;56.468;84.952;2023-06-22T22:46:15;6.00;;;3.00;;
50231;SDS011;36118;56.468;84.952;2023-06-22T22:51:18;8.73;;;2.90;;
50231;SDS011;36118;56.468;84.952;2023-06-22T22:56:21;5.50;;;2.85;;
50231;SDS011;36118;56.468;84.952;2023-06-22T23:01:26;6.00;;;2.83;;
50231;SDS011;36118;56.468;84.952;2023-06-22T23:06:29;6.43;;;2.92;;
50231;SDS011;36118;56.468;84.952;2023-06-22T23:11:33;4.15;;;2.55;;
50231;SDS011;36118;56.468;84.952;2023-06-22T23:16:36;4.82;;;2.80;;
50231;SDS011;36118;56.468;84.952;2023-06-22T23:21:40;8.23;;;2.83;;
50231;SDS011;36118;56.468;84.952;2023-06-22T23:26:43;4.13;;;2.47;;
50231;SDS011;36118;56.468;84.952;2023-06-22T23:31:48;9.27;;;2.70;;
50231;SDS011;36118;56.468;84.952;2023-06-22T23:36:51;4.75;;;2.55;;
50231;SDS011;36118;56.468;84.952;2023-06-22T23:41:54;3.92;;;2.40;;
50231;SDS011;36118;56.468;84.952;2023-06-22T23:46:57;3.83;;;2.85;;
50231;SDS011;36118;56.468;84.952;2023-06-22T23:52:01;6.32;;;2.70;;
50231;SDS011;36118;56.468;84.952;2023-06-22T23:57:06;4.78;;;2.45;;
